Time;durP1;ratioP1;P1;durP2;ratioP2;P2;SDS_P1;SDS_P2;PMS_P1;PMS_P2;Temp;Humidity;BMP_temperature;BMP_pressure;BME280_temperature;BME280_humidity;BME280_pressure;Samples;Min_cycle;Max_cycle;Signal;HPM_P1;HPM_P2
2022/11/27 00:00:52;;;;;;;25.65;15.02;;;6.50;99.90;;;;;;2064437;28;20113;-70
2022/11/27 00:01:53;;;;;;;22.33;14.77;;;6.50;99.90;;;;;;2057489;28;20023;-71
2022/11/27 00:02:53;;;;;;;25.33;15.25;;;6.50;99.90;;;;;;2057046;28;20038;-72
2022/11/27 00:03:55;;;;;;;24.00;15.98;;;6.50;99.90;;;;;;2057453;28;20030;-71
2022/11/27 00:04:55;;;;;;;25.92;16.67;;;6.40;99.90;;;;;;2057245;28;20049;-72
2022/11/27 00:05:57;;;;;;;27.88;17.20;;;6.40;99.90;;;;;;2058627;28;20030;-72
2022/11/27 00:06:58;;;;;;;28.48;17.33;;;6.40;99.90;;;;;;2058895;28;20085;-72
2022/11/27 00:07:58;;;;;;;29.95;18.20;;;6.40;99.90;;;;;;2059581;28;20054;-75
2022/11/27 00:09:00;;;;;;;28.70;18.73;;;6.40;99.90;;;;;;2059188;28;20038;-70
2022/11/27 00:10:02;;;;;;;30.80;19.73;;;6.40;99.90;;;;;;2059064;28;20031;-73
2022/11/27 00:11:08;;;;;;;34.25;19.52;;;6.40;99.90;;;;;;2064926;28;20515;-72
2022/11/27 00:12:08;;;;;;;33.03;20.17;;;6.40;99.90;;;;;;2058462;28;20023;-71
2022/11/27 00:13:09;;;;;;;32.60;19.40;;;6.40;99.90;;;;;;2058559;28;20659;-70
2022/11/27 00:14:12;;;;;;;31.13;18.75;;;6.40;99.90;;;;;;2057738;28;20090;-71
2022/11/27 00:15:13;;;;;;;29.60;17.80;;;6.40;99.90;;;;;;2058033;28;20190;-71
2022/11/27 00:16:14;;;;;;;31.60;18.15;;;6.40;99.90;;;;;;2058287;28;20035;-70
2022/11/27 00:17:15;;;;;;;28.90;17.88;;;6.40;99.90;;;;;;2058050;28;20049;-72
2022/11/27 00:18:16;;;;;;;28.23;16.92;;;6.40;99.90;;;;;;2058811;28;20031;-71
2022/11/27 00:19:16;;;;;;;25.85;16.50;;;6.40;99.90;;;;;;2059136;28;20043;-71
2022/11/27 00:20:17;;;;;;;24.27;16.20;;;6.40;99.90;;;;;;2058507;28;20034;-71
2022/11/27 00:21:23;;;;;;;27.67;15.68;;;6.40;99.90;;;;;;2066038;28;20086;-71
2022/11/27 00:22:25;;;;;;;29.63;16.73;;;6.40;99.90;;;;;;2064664;28;20026;-72
2022/11/27 00:23:26;;;;;;;29.63;16.02;;;6.40;99.90;;;;;;2064309;28;20085;-72
2022/11/27 00:24:26;;;;;;;27.88;15.77;;;6.30;99.90;;;;;;2055672;28;20113;-72
2022/11/27 00:25:27;;;;;;;23.90;14.60;;;6.30;99.90;;;;;;2056004;28;20039;-71
2022/11/27 00:26:29;;;;;;;24.42;14.75;;;6.30;99.90;;;;;;2055997;28;20652;-71
2022/11/27 00:27:30;;;;;;;21.50;14.25;;;6.30;99.90;;;;;;2056053;28;20334;-70
2022/11/27 00:28:31;;;;;;;21.25;13.80;;;6.30;99.90;;;;;;2056316;28;20153;-74
2022/11/27 00:29:32;;;;;;;22.80;14.05;;;6.30;99.90;;;;;;2056572;28;20031;-72
2022/11/27 00:30:33;;;;;;;20.52;13.23;;;6.30;99.90;;;;;;2056239;28;20027;-72
2022/11/27 00:31:36;;;;;;;23.70;13.57;;;6.30;99.90;;;;;;2056634;28;20019;-71
2022/11/27 00:32:36;;;;;;;21.67;13.60;;;6.30;99.90;;;;;;2056189;28;20114;-71
2022/11/27 00:33:37;;;;;;;19.60;12.57;;;6.20;99.90;;;;;;2054989;28;20035;-71
2022/11/27 00:34:38;;;;;;;22.00;13.20;;;6.20;99.90;;;;;;2055245;28;20058;-72
2022/11/27 00:35:38;;;;;;;18.58;11.93;;;6.20;99.90;;;;;;2062591;28;20064;-71
2022/11/27 00:36:39;;;;;;;19.08;12.68;;;6.20;99.90;;;;;;2062261;28;20089;-70
2022/11/27 00:37:40;;;;;;;18.42;12.32;;;6.20;99.90;;;;;;2054739;28;20430;-72
2022/11/27 00:38:41;;;;;;;19.63;12.75;;;6.20;99.90;;;;;;2062710;28;20023;-72
2022/11/27 00:39:42;;;;;;;20.65;13.18;;;6.20;99.90;;;;;;2063815;28;20088;-72
2022/11/27 00:40:42;;;;;;;20.45;12.80;;;6.20;99.90;;;;;;2056483;28;20015;-70
2022/11/27 00:41:43;;;;;;;18.58;11.95;;;6.20;99.90;;;;;;2056412;28;20883;-71
2022/11/27 00:42:47;;;;;;;19.70;12.73;;;6.20;99.90;;;;;;2064082;28;20104;-70
2022/11/27 00:43:48;;;;;;;20.02;12.75;;;6.20;99.90;;;;;;2055652;28;20053;-71
2022/11/27 00:44:51;;;;;;;16.50;12.05;;;6.20;99.90;;;;;;2055371;28;20027;-71
2022/11/27 00:45:52;;;;;;;18.20;11.77;;;6.20;99.90;;;;;;2048543;28;20109;-72
2022/11/27 00:46:53;;;;;;;18.17;12.10;;;6.20;99.90;;;;;;2048609;29;20462;-72
2022/11/27 00:47:54;;;;;;;18.70;12.48;;;6.20;99.90;;;;;;2050429;28;20097;-72
2022/11/27 00:48:58;;;;;;;17.95;11.90;;;6.20;99.90;;;;;;2056399;28;20110;-72
2022/11/27 00:49:59;;;;;;;17.75;11.80;;;6.20;99.90;;;;;;2057078;28;20043;-72
2022/11/27 00:51:01;;;;;;;19.67;12.45;;;6.20;99.90;;;;;;2056507;28;20057;-72
2022/11/27 00:52:02;;;;;;;17.98;11.77;;;6.20;99.90;;;;;;2056158;28;20035;-69
2022/11/27 00:53:03;;;;;;;18.08;12.45;;;6.20;99.90;;;;;;2057046;28;20564;-71
2022/11/27 00:54:05;;;;;;;18.98;12.15;;;6.20;99.90;;;;;;2056402;28;20027;-71
2022/11/27 00:55:06;;;;;;;21.73;12.50;;;6.20;99.90;;;;;;2056401;28;20574;-70
2022/11/27 00:56:07;;;;;;;17.02;12.02;;;6.20;99.90;;;;;;2056102;28;20049;-71
2022/11/27 00:57:08;;;;;;;19.88;12.32;;;6.20;99.90;;;;;;2056398;28;20069;-73
2022/11/27 00:58:08;;;;;;;17.80;11.48;;;6.20;99.90;;;;;;2056571;28;20089;-70
2022/11/27 00:59:10;;;;;;;16.25;11.98;;;6.20;99.90;;;;;;2055854;28;20144;-71
2022/11/27 01:00:11;;;;;;;17.27;11.32;;;6.20;99.90;;;;;;2049459;28;20027;-70
2022/11/27 01:01:22;;;;;;;19.55;11.48;;;6.20;99.90;;;;;;2055971;28;20533;-70
2022/11/27 01:02:23;;;;;;;;;;;6.20;99.90;;;;;;2056339;28;20026;-70
2022/11/27 01:03:24;;;;;;;20.73;11.82;;;6.20;99.90;;;;;;2055995;28;19917;-69
2022/11/27 01:04:25;;;;;;;18.77;12.05;;;6.20;99.90;;;;;;2055619;28;20026;-71
2022/11/27 01:05:25;;;;;;;20.25;12.70;;;6.20;99.90;;;;;;2055711;28;20130;-70
2022/11/27 01:06:28;;;;;;;21.20;12.25;;;6.20;99.90;;;;;;2056173;28;20121;-69
2022/11/27 01:07:29;;;;;;;22.25;13.48;;;6.20;99.90;;;;;;2047084;28;20082;-71
2022/11/27 01:08:29;;;;;;;25.05;14.07;;;6.20;99.90;;;;;;2047801;28;20046;-72
2022/11/27 01:09:30;;;;;;;22.63;13.20;;;6.20;99.90;;;;;;2047668;28;20035;-70
2022/11/27 01:10:31;;;;;;;24.40;12.90;;;6.20;99.90;;;;;;2047825;29;20051;-71
2022/11/27 01:11:33;;;;;;;23.50;13.27;;;6.20;99.90;;;;;;2055344;28;20031;-70
2022/11/27 01:12:34;;;;;;;22.30;13.20;;;6.20;99.90;;;;;;2055675;28;20030;-70
2022/11/27 01:13:35;;;;;;;21.17;12.65;;;6.20;99.90;;;;;;2055967;28;20400;-70
2022/11/27 01:14:36;;;;;;;20.67;12.55;;;6.20;99.90;;;;;;2056547;28;20027;-71
2022/11/27 01:15:37;;;;;;;18.88;12.27;;;6.20;99.90;;;;;;2056484;28;20085;-71
2022/11/27 01:16:38;;;;;;;19.35;11.90;;;6.20;99.90;;;;;;2056442;28;20153;-71
2022/11/27 01:17:39;;;;;;;24.65;14.02;;;6.20;99.90;;;;;;2056330;28;20057;-70
2022/11/27 01:18:41;;;;;;;20.13;13.43;;;6.20;99.90;;;;;;2056563;28;20488;-71
2022/11/27 01:19:42;;;;;;;21.30;12.90;;;6.20;99.90;;;;;;2055361;28;20031;-70
2022/11/27 01:20:42;;;;;;;19.90;12.10;;;6.20;99.90;;;;;;2056050;28;20464;-70
2022/11/27 01:21:44;;;;;;;19.13;11.77;;;6.20;99.90;;;;;;2055690;28;20444;-70
2022/11/27 01:22:44;;;;;;;18.80;12.10;;;6.20;99.90;;;;;;2056399;28;20465;-70
2022/11/27 01:23:45;;;;;;;16.13;11.60;;;6.20;99.90;;;;;;2055141;28;20050;-70
2022/11/27 01:24:46;;;;;;;17.33;11.55;;;6.30;99.90;;;;;;2055407;28;20403;-69
2022/11/27 01:25:47;;;;;;;16.25;11.70;;;6.30;99.90;;;;;;2056083;28;20038;-69
2022/11/27 01:26:47;;;;;;;18.50;11.10;;;6.30;99.90;;;;;;2056262;28;20026;-69
2022/11/27 01:27:48;;;;;;;17.05;11.60;;;6.30;99.90;;;;;;2050579;28;20036;-70
2022/11/27 01:28:54;;;;;;;16.80;10.80;;;6.30;99.90;;;;;;2055503;28;20401;-69
2022/11/27 01:29:54;;;;;;;19.73;11.40;;;6.20;99.90;;;;;;2055860;28;20050;-70
2022/11/27 01:30:55;;;;;;;19.67;12.40;;;6.20;99.90;;;;;;2056123;28;20421;-70
2022/11/27 01:31:56;;;;;;;22.00;11.95;;;6.20;99.90;;;;;;2055967;28;20034;-70
2022/11/27 01:32:57;;;;;;;18.08;11.73;;;6.20;99.90;;;;;;2055909;28;20034;-68
2022/11/27 01:34:11;;;;;;;16.90;11.35;;;6.20;99.90;;;;;;2056020;28;20374;-69
2022/11/27 01:35:12;;;;;;;18.65;11.68;;;6.20;99.90;;;;;;2056052;28;20117;-69
2022/11/27 01:36:14;;;;;;;16.67;11.75;;;6.20;99.90;;;;;;2055784;28;20026;-69
2022/11/27 01:37:15;;;;;;;18.75;11.55;;;6.20;99.90;;;;;;2056198;28;20778;-69
2022/11/27 01:38:15;;;;;;;19.60;11.98;;;6.10;99.90;;;;;;2055653;28;20035;-69
2022/11/27 01:39:18;;;;;;;20.05;11.77;;;6.10;99.90;;;;;;2055972;28;20133;-69
2022/11/27 01:40:19;;;;;;;19.55;11.73;;;6.10;99.90;;;;;;2055995;28;20041;-70
2022/11/27 01:41:35;;;;;;;17.20;12.20;;;6.10;99.90;;;;;;2063100;28;20468;-70
2022/11/27 01:42:36;;;;;;;23.88;12.23;;;6.10;99.90;;;;;;2055409;28;20027;-70
2022/11/27 01:43:51;;;;;;;17.98;11.18;;;6.10;99.90;;;;;;2055181;28;20503;-71
2022/11/27 01:44:54;;;;;;;22.88;11.27;;;6.00;99.90;;;;;;2048367;28;20410;-70
2022/11/27 01:45:55;;;;;;;20.80;11.88;;;6.00;99.90;;;;;;2055790;28;20110;-69
2022/11/27 01:47:12;;;;;;;19.67;11.07;;;6.00;99.90;;;;;;2055200;28;20042;-69
2022/11/27 01:48:13;;;;;;;17.15;10.55;;;6.00;99.90;;;;;;2055031;28;20027;-69
2022/11/27 01:49:37;;;;;;;17.50;10.10;;;6.00;99.90;;;;;;2063036;28;20613;-69
2022/11/27 01:50:39;;;;;;;16.67;10.45;;;6.00;99.90;;;;;;2059625;28;20047;-70
2022/11/27 01:52:02;;;;;;;17.00;10.20;;;5.90;99.90;;;;;;2060731;28;20088;-69
2022/11/27 01:53:12;;;;;;;17.05;10.35;;;5.90;99.90;;;;;;2054403;28;20545;-70
2022/11/27 01:54:14;;;;;;;19.27;10.25;;;5.90;99.90;;;;;;2055584;28;20097;-69
2022/11/27 01:55:29;;;;;;;18.00;10.50;;;5.90;99.90;;;;;;2055356;28;20031;-70
2022/11/27 01:56:30;;;;;;;17.90;10.70;;;5.90;99.90;;;;;;2055522;28;20485;-70
2022/11/27 01:57:42;;;;;;;17.88;10.45;;;5.80;99.90;;;;;;2055642;28;20034;-70
2022/11/27 01:58:43;;;;;;;15.98;9.88;;;5.80;99.90;;;;;;2055907;28;20038;-69
2022/11/27 01:59:46;;;;;;;19.27;10.52;;;5.80;99.90;;;;;;2055753;28;20398;-69
2022/11/27 02:00:47;;;;;;;17.17;10.88;;;5.80;99.90;;;;;;2055923;28;20026;-69
2022/11/27 02:01:48;;;;;;;17.38;10.57;;;5.80;99.90;;;;;;2055162;28;20034;-69
2022/11/27 02:02:49;;;;;;;16.17;9.75;;;5.70;99.90;;;;;;2053614;28;20062;-69
2022/11/27 02:03:49;;;;;;;15.38;9.93;;;5.60;99.90;;;;;;2055410;28;20053;-69
2022/11/27 02:04:51;;;;;;;13.35;9.50;;;5.60;99.90;;;;;;2055580;28;20138;-69
2022/11/27 02:05:52;;;;;;;13.95;10.02;;;5.60;99.90;;;;;;2055688;28;20027;-70
2022/11/27 02:06:56;;;;;;;14.77;9.95;;;5.50;99.90;;;;;;2062972;28;20413;-69
2022/11/27 02:07:59;;;;;;;17.50;9.95;;;5.50;99.90;;;;;;2062567;28;20180;-69
2022/11/27 02:09:00;;;;;;;15.52;10.68;;;5.40;99.90;;;;;;2055709;28;20035;-69
2022/11/27 02:10:01;;;;;;;15.18;9.93;;;5.40;99.90;;;;;;2055556;28;20042;-70
2022/11/27 02:11:43;;;;;;;15.65;10.00;;;5.30;99.90;;;;;;2055890;28;20045;-70
2022/11/27 02:13:02;;;;;;;14.98;9.95;;;5.30;99.90;;;;;;2062425;28;20049;-69
2022/11/27 02:14:42;;;;;;;15.68;9.90;;;5.20;99.90;;;;;;2053747;28;20047;-68
2022/11/27 02:15:51;;;;;;;18.02;10.00;;;5.20;99.90;;;;;;2055483;28;20110;-69
2022/11/27 02:17:04;;;;;;;17.38;10.23;;;5.10;99.90;;;;;;2055657;28;20042;-69
2022/11/27 02:18:14;;;;;;;16.30;10.35;;;5.10;99.90;;;;;;2055510;28;20073;-69
2022/11/27 02:19:56;;;;;;;16.42;10.02;;;5.00;99.90;;;;;;2055844;28;20497;-69
2022/11/27 02:21:03;;;;;;;16.73;10.48;;;5.00;99.90;;;;;;2055761;28;20535;-69
2022/11/27 02:22:13;;;;;;;17.13;10.75;;;5.00;99.90;;;;;;2055244;28;20643;-69
2022/11/27 02:23:45;;;;;;;20.00;11.35;;;4.90;99.90;;;;;;2055771;28;20035;-69
2022/11/27 02:24:55;;;;;;;18.73;11.05;;;4.90;99.90;;;;;;2062849;28;20125;-69
2022/11/27 02:26:07;;;;;;;16.05;11.02;;;4.90;99.90;;;;;;2062070;28;20045;-69
2022/11/27 02:27:19;;;;;;;19.35;11.30;;;4.80;99.90;;;;;;2063038;28;20039;-70
2022/11/27 02:28:45;;;;;;;18.60;11.48;;;4.80;99.90;;;;;;2061437;28;20477;-71
2022/11/27 02:29:48;;;;;;;17.13;10.88;;;4.80;99.90;;;;;;2055746;28;20027;-69
2022/11/27 02:30:59;;;;;;;17.25;10.50;;;4.80;99.90;;;;;;2055669;28;20066;-70
2022/11/27 02:32:08;;;;;;;16.35;10.20;;;4.70;99.90;;;;;;2055497;28;20107;-70
2022/11/27 02:33:11;;;;;;;17.92;11.18;;;4.70;99.90;;;;;;2055418;28;20421;-70
2022/11/27 02:34:22;;;;;;;16.02;10.60;;;4.70;99.90;;;;;;2055397;28;20077;-70
2022/11/27 02:35:34;;;;;;;19.65;11.80;;;4.70;99.90;;;;;;2055664;28;20174;-70
2022/11/27 02:36:39;;;;;;;17.90;11.13;;;4.70;99.90;;;;;;2063044;28;20034;-70
2022/11/27 02:38:05;;;;;;;18.13;11.18;;;4.60;99.90;;;;;;2062148;28;20019;-70
2022/11/27 02:39:13;;;;;;;16.20;11.18;;;4.60;99.90;;;;;;2055422;28;20031;-70
2022/11/27 02:40:26;;;;;;;19.52;11.40;;;4.60;99.90;;;;;;2055355;28;20620;-70
2022/11/27 02:41:40;;;;;;;21.00;11.60;;;4.60;99.90;;;;;;2055316;28;20046;-71
2022/11/27 02:42:47;;;;;;;22.20;11.65;;;4.60;99.90;;;;;;2063448;28;20038;-70
2022/11/27 02:43:50;;;;;;;19.38;11.85;;;4.60;99.90;;;;;;2057398;28;20123;-70
2022/11/27 02:45:16;;;;;;;19.08;11.25;;;4.60;99.90;;;;;;2057580;28;20121;-70
2022/11/27 02:46:18;;;;;;;18.90;10.88;;;4.50;99.90;;;;;;2059879;28;20029;-70
2022/11/27 02:47:20;;;;;;;18.45;10.48;;;4.50;99.90;;;;;;2067131;28;20034;-71
2022/11/27 02:48:25;;;;;;;19.58;11.43;;;4.50;99.90;;;;;;2070631;28;20110;-70
2022/11/27 02:49:27;;;;;;;18.42;11.25;;;4.50;99.90;;;;;;2060206;28;20146;-70
2022/11/27 02:50:31;;;;;;;20.77;11.65;;;4.50;99.90;;;;;;2059558;28;20027;-70
2022/11/27 02:51:37;;;;;;;18.77;11.68;;;4.50;99.90;;;;;;2050050;28;20133;-70
2022/11/27 02:52:40;;;;;;;20.05;12.70;;;4.40;99.90;;;;;;2047727;28;20528;-69
2022/11/27 02:53:55;;;;;;;19.63;12.27;;;4.40;99.90;;;;;;2055501;28;20512;-70
2022/11/27 02:54:59;;;;;;;22.25;13.00;;;4.40;99.90;;;;;;2055221;28;20033;-70
2022/11/27 02:56:03;;;;;;;23.90;13.63;;;4.40;99.90;;;;;;2054577;28;20027;-70
2022/11/27 02:57:06;;;;;;;24.60;13.68;;;4.40;99.90;;;;;;2054815;28;20477;-70
2022/11/27 02:58:16;;;;;;;24.15;13.82;;;4.30;99.90;;;;;;2055121;28;20027;-70
2022/11/27 02:59:19;;;;;;;24.35;13.23;;;4.40;99.90;;;;;;2054657;28;20023;-70
2022/11/27 03:00:20;;;;;;;24.38;12.77;;;4.30;99.90;;;;;;2038930;29;20105;-70
2022/11/27 03:01:22;;;;;;;19.67;12.48;;;4.30;99.90;;;;;;2038711;29;20031;-71
2022/11/27 03:02:32;;;;;;;22.00;12.70;;;4.30;99.90;;;;;;2054480;28;20030;-69
2022/11/27 03:03:40;;;;;;;23.80;13.43;;;4.20;99.90;;;;;;2055503;28;20113;-69
2022/11/27 03:04:47;;;;;;;24.08;13.80;;;4.20;99.90;;;;;;2055347;28;20029;-69
2022/11/27 03:05:50;;;;;;;22.52;12.93;;;4.20;99.90;;;;;;2055358;28;20030;-68
2022/11/27 03:06:55;;;;;;;24.27;13.55;;;4.20;99.90;;;;;;2055178;28;20049;-69
2022/11/27 03:08:21;;;;;;;23.65;13.65;;;4.20;99.90;;;;;;2055104;28;20030;-69
2022/11/27 03:09:34;;;;;;;24.30;14.02;;;4.10;99.90;;;;;;2055252;28;20058;-69
2022/11/27 03:10:45;;;;;;;27.33;14.15;;;4.10;99.90;;;;;;2055595;28;20560;-69
2022/11/27 03:11:46;;;;;;;;;;;4.10;99.90;;;;;;2055750;28;20102;-69
2022/11/27 03:12:48;;;;;;;26.42;13.93;;;4.10;99.90;;;;;;2055588;28;19997;-69
2022/11/27 03:13:54;;;;;;;25.30;14.32;;;4.10;99.90;;;;;;2055212;28;20030;-70
2022/11/27 03:14:55;;;;;;;24.48;14.05;;;4.00;99.90;;;;;;2055244;28;20046;-70
2022/11/27 03:16:15;;;;;;;23.52;13.75;;;4.10;99.90;;;;;;2055545;28;20041;-70
2022/11/27 03:17:51;;;;;;;23.70;13.48;;;4.00;99.90;;;;;;2055386;28;20046;-70
2022/11/27 03:19:17;;;;;;;21.58;13.15;;;4.10;99.90;;;;;;2055316;28;20370;-70
2022/11/27 03:20:29;;;;;;;27.27;13.68;;;4.10;99.90;;;;;;2053971;28;20110;-69
2022/11/27 03:21:58;;;;;;;29.45;14.95;;;4.10;99.90;;;;;;2054865;28;20042;-71
2022/11/27 03:22:59;;;;;;;23.83;13.65;;;4.10;99.90;;;;;;2054610;28;20585;-70
2022/11/27 03:24:00;;;;;;;22.77;13.65;;;4.10;99.90;;;;;;2062615;28;20038;-69
2022/11/27 03:25:01;;;;;;;23.08;14.68;;;4.00;99.90;;;;;;2062528;28;20452;-70
2022/11/27 03:26:01;;;;;;;22.02;13.48;;;4.10;99.90;;;;;;2055316;28;20058;-70
2022/11/27 03:27:05;;;;;;;21.20;13.93;;;4.10;99.90;;;;;;2055220;28;20182;-71
2022/11/27 03:28:09;;;;;;;22.08;13.85;;;4.10;99.90;;;;;;2054887;28;20481;-70
2022/11/27 03:29:15;;;;;;;20.35;13.07;;;4.00;99.90;;;;;;2055686;28;20046;-70
2022/11/27 03:30:16;;;;;;;20.95;13.48;;;4.10;99.90;;;;;;2055138;28;20066;-70
2022/11/27 03:31:17;;;;;;;21.60;13.30;;;4.10;99.90;;;;;;2055196;28;20038;-70
2022/11/27 03:32:18;;;;;;;21.52;13.55;;;4.00;99.90;;;;;;2055052;28;20027;-71
2022/11/27 03:33:19;;;;;;;21.70;13.85;;;4.00;99.90;;;;;;2055125;28;20026;-70
2022/11/27 03:34:20;;;;;;;20.70;12.70;;;4.00;99.90;;;;;;2054899;28;20023;-69
2022/11/27 03:35:24;;;;;;;19.85;13.43;;;4.00;99.90;;;;;;2055068;28;20114;-69
2022/11/27 03:36:25;;;;;;;21.67;13.90;;;4.00;99.90;;;;;;2054722;28;20377;-70
2022/11/27 03:37:26;;;;;;;20.33;12.70;;;4.00;99.90;;;;;;2054981;28;20034;-70
2022/11/27 03:38:27;;;;;;;21.38;13.20;;;4.00;99.90;;;;;;2055133;28;20030;-70
2022/11/27 03:39:29;;;;;;;20.90;13.90;;;4.00;99.90;;;;;;2060902;28;20460;-70
2022/11/27 03:40:44;;;;;;;22.50;13.25;;;3.90;99.90;;;;;;2063627;28;20042;-70
2022/11/27 03:41:45;;;;;;;20.98;13.65;;;3.90;99.90;;;;;;2063273;28;20045;-70
2022/11/27 03:43:08;;;;;;;24.10;13.88;;;3.90;99.90;;;;;;2056226;28;20468;-70
2022/11/27 03:44:41;;;;;;;25.17;14.38;;;3.90;99.90;;;;;;2049761;28;20114;-70
2022/11/27 03:45:45;;;;;;;25.00;14.05;;;3.90;99.90;;;;;;2055177;28;20027;-72
2022/11/27 03:47:07;;;;;;;25.55;14.80;;;3.90;99.90;;;;;;2055333;28;20122;-70
2022/11/27 03:48:46;;;;;;;25.55;14.63;;;3.80;99.90;;;;;;2047167;28;20044;-70
2022/11/27 03:50:09;;;;;;;25.30;14.60;;;3.80;99.90;;;;;;2047515;29;20063;-70
2022/11/27 03:51:42;;;;;;;22.75;14.20;;;3.80;99.90;;;;;;2047162;29;20592;-70
2022/11/27 03:53:04;;;;;;;22.65;14.43;;;3.80;99.90;;;;;;2045432;29;20047;-70
2022/11/27 03:54:26;;;;;;;23.48;13.68;;;3.70;99.90;;;;;;2038485;29;20046;-70
2022/11/27 03:55:46;;;;;;;23.17;13.82;;;3.70;99.90;;;;;;2047388;28;20014;-70
2022/11/27 03:56:58;;;;;;;23.35;14.70;;;3.70;99.90;;;;;;2054919;28;20031;-70
2022/11/27 03:58:03;;;;;;;22.20;14.20;;;3.60;99.90;;;;;;2054742;28;20061;-70
2022/11/27 03:59:11;;;;;;;25.67;14.43;;;3.60;99.90;;;;;;2054300;28;20027;-70
2022/11/27 04:00:12;;;;;;;22.63;13.88;;;3.60;99.90;;;;;;2054549;28;20672;-69
2022/11/27 04:01:17;;;;;;;21.42;13.60;;;3.50;99.90;;;;;;2054489;28;20023;-71
2022/11/27 04:02:37;;;;;;;23.42;13.90;;;3.50;99.90;;;;;;2054530;28;20109;-70
2022/11/27 04:03:38;;;;;;;22.83;13.88;;;3.50;99.90;;;;;;2054990;28;20030;-70
2022/11/27 04:04:38;;;;;;;24.27;14.20;;;3.50;99.90;;;;;;2055210;28;20026;-70
2022/11/27 04:05:39;;;;;;;22.05;13.70;;;3.50;99.90;;;;;;2055256;28;20026;-70
2022/11/27 04:06:40;;;;;;;22.55;13.40;;;3.50;99.90;;;;;;2055353;28;20771;-70
2022/11/27 04:07:41;;;;;;;24.23;14.63;;;3.50;99.90;;;;;;2055603;28;20046;-70
2022/11/27 04:08:44;;;;;;;20.55;13.73;;;3.50;99.90;;;;;;2055870;28;20433;-70
2022/11/27 04:09:44;;;;;;;23.40;13.98;;;3.40;99.90;;;;;;2055567;28;20442;-70
2022/11/27 04:10:45;;;;;;;23.35;14.02;;;3.40;99.90;;;;;;2055162;28;20034;-70
2022/11/27 04:11:46;;;;;;;23.70;13.65;;;3.40;99.90;;;;;;2054859;28;20508;-70
2022/11/27 04:12:47;;;;;;;21.15;13.85;;;3.40;99.90;;;;;;2055116;28;20050;-70
2022/11/27 04:13:47;;;;;;;23.73;13.82;;;3.40;99.90;;;;;;2055326;28;20026;-70
2022/11/27 04:14:48;;;;;;;21.42;13.40;;;3.40;99.90;;;;;;2056638;28;20133;-70
2022/11/27 04:15:49;;;;;;;22.38;14.18;;;3.40;99.90;;;;;;2056614;28;20038;-70
2022/11/27 04:16:49;;;;;;;25.50;14.23;;;3.40;99.90;;;;;;2056750;28;20093;-70
2022/11/27 04:17:50;;;;;;;23.33;14.25;;;3.30;99.90;;;;;;2055891;28;20062;-70
2022/11/27 04:18:51;;;;;;;22.38;14.57;;;3.30;99.90;;;;;;2056068;28;20039;-70
2022/11/27 04:19:51;;;;;;;26.30;14.98;;;3.30;99.90;;;;;;2056143;28;20030;-70
2022/11/27 04:20:52;;;;;;;25.35;15.05;;;3.30;99.90;;;;;;2056189;28;20022;-70
2022/11/27 04:21:53;;;;;;;25.63;15.07;;;3.30;99.90;;;;;;2057193;28;20350;-70
2022/11/27 04:22:54;;;;;;;24.13;15.15;;;3.30;99.90;;;;;;2056919;28;20210;-70
2022/11/27 04:23:55;;;;;;;23.88;14.90;;;3.30;99.90;;;;;;2056395;28;20046;-70
2022/11/27 04:24:55;;;;;;;21.92;14.35;;;3.30;99.90;;;;;;2055690;28;20031;-70
2022/11/27 04:25:56;;;;;;;25.13;14.95;;;3.20;99.90;;;;;;2056006;28;20058;-70
2022/11/27 04:26:57;;;;;;;25.17;15.70;;;3.20;99.90;;;;;;2056516;28;20471;-70
2022/11/27 04:27:57;;;;;;;24.83;15.50;;;3.20;99.90;;;;;;2056328;28;20042;-70
2022/11/27 04:28:58;;;;;;;26.35;16.23;;;3.20;99.90;;;;;;2055909;28;20038;-70
2022/11/27 04:29:59;;;;;;;24.38;15.88;;;3.20;99.90;;;;;;2055941;28;20026;-70
2022/11/27 04:30:59;;;;;;;28.33;15.85;;;3.20;99.90;;;;;;2056596;28;20027;-70
2022/11/27 04:32:00;;;;;;;27.92;15.85;;;3.20;99.90;;;;;;2056408;28;20031;-70
2022/11/27 04:33:01;;;;;;;25.25;15.73;;;3.20;99.90;;;;;;2056262;28;20429;-70
2022/11/27 04:34:02;;;;;;;27.60;15.82;;;3.20;99.90;;;;;;2057442;28;20027;-70
2022/11/27 04:35:03;;;;;;;26.77;16.40;;;3.10;99.90;;;;;;2057085;28;20474;-70
2022/11/27 04:36:04;;;;;;;27.23;15.88;;;3.10;99.90;;;;;;2056587;28;20019;-70
2022/11/27 04:37:05;;;;;;;27.73;16.40;;;3.10;99.90;;;;;;2057025;28;20035;-70
2022/11/27 04:38:06;;;;;;;25.20;16.23;;;3.10;99.90;;;;;;2063911;28;20042;-70
2022/11/27 04:39:06;;;;;;;27.38;16.48;;;3.10;99.90;;;;;;2063933;28;20065;-70
2022/11/27 04:40:08;;;;;;;25.40;15.75;;;3.10;99.90;;;;;;2056717;28;20054;-70
2022/11/27 04:41:08;;;;;;;28.90;16.60;;;3.10;99.90;;;;;;2056326;28;20779;-70
2022/11/27 04:42:09;;;;;;;28.10;16.92;;;3.10;99.90;;;;;;2056518;28;20190;-70
2022/11/27 04:43:10;;;;;;;26.08;16.45;;;3.10;99.90;;;;;;2056378;28;20192;-70
2022/11/27 04:44:11;;;;;;;27.23;17.02;;;3.10;99.90;;;;;;2063660;28;20056;-70
2022/11/27 04:45:13;;;;;;;28.67;16.30;;;3.10;99.90;;;;;;2063950;28;20542;-69
2022/11/27 04:46:13;;;;;;;26.30;16.23;;;3.10;99.90;;;;;;2056404;28;20093;-70
2022/11/27 04:47:14;;;;;;;29.73;16.98;;;3.10;99.90;;;;;;2056436;28;20085;-70
2022/11/27 04:48:15;;;;;;;26.13;16.60;;;3.10;99.90;;;;;;2055507;28;20043;-69
2022/11/27 04:49:15;;;;;;;24.95;15.93;;;3.00;99.90;;;;;;2055977;28;20848;-69
2022/11/27 04:50:16;;;;;;;22.40;15.27;;;3.00;99.90;;;;;;2055718;28;20131;-70
2022/11/27 04:51:17;;;;;;;24.55;15.43;;;3.00;99.90;;;;;;2047908;29;20034;-69
2022/11/27 04:52:17;;;;;;;25.90;15.48;;;3.00;99.90;;;;;;2059080;28;20019;-69
2022/11/27 04:53:18;;;;;;;27.52;15.82;;;3.00;99.90;;;;;;2056431;28;20129;-69
2022/11/27 04:54:19;;;;;;;27.67;16.05;;;3.00;99.90;;;;;;2056171;28;20023;-70
2022/11/27 04:55:19;;;;;;;28.73;15.57;;;3.00;99.90;;;;;;2055772;28;20110;-70
2022/11/27 04:56:20;;;;;;;26.50;15.80;;;3.00;99.90;;;;;;2055847;28;20055;-70
2022/11/27 04:57:21;;;;;;;27.10;16.20;;;3.00;99.90;;;;;;2055719;28;20019;-70
2022/11/27 04:58:21;;;;;;;26.85;16.00;;;3.00;99.90;;;;;;2055262;28;20023;-70
2022/11/27 04:59:22;;;;;;;27.10;16.00;;;3.00;99.90;;;;;;2055665;28;20563;-70
2022/11/27 05:00:23;;;;;;;24.05;15.63;;;3.00;99.90;;;;;;2056317;28;20031;-71
2022/11/27 05:01:23;;;;;;;23.52;15.05;;;3.00;99.90;;;;;;2056290;28;20054;-70
2022/11/27 05:02:24;;;;;;;25.70;15.48;;;2.90;99.90;;;;;;2056579;28;20440;-70
2022/11/27 05:03:25;;;;;;;25.42;15.48;;;2.90;99.90;;;;;;2056181;28;20113;-70
2022/11/27 05:04:25;;;;;;;26.17;16.25;;;2.90;99.90;;;;;;2056232;28;20035;-69
2022/11/27 05:05:26;;;;;;;26.20;15.82;;;2.90;99.90;;;;;;2056160;28;20031;-69
2022/11/27 05:06:27;;;;;;;26.95;15.93;;;2.90;99.90;;;;;;2055605;28;20489;-69
2022/11/27 05:07:27;;;;;;;27.50;15.80;;;2.90;99.90;;;;;;2055302;28;20724;-68
2022/11/27 05:08:29;;;;;;;27.30;15.98;;;2.90;99.90;;;;;;2056262;28;20465;-71
2022/11/27 05:09:30;;;;;;;27.23;16.00;;;2.80;99.90;;;;;;2056160;28;20055;-69
2022/11/27 05:10:31;;;;;;;28.58;15.95;;;2.80;99.90;;;;;;2056020;28;20033;-70
2022/11/27 05:11:32;;;;;;;27.40;16.02;;;2.80;99.90;;;;;;2056039;28;20050;-70
2022/11/27 05:12:32;;;;;;;26.80;16.45;;;2.80;99.90;;;;;;2056278;28;20029;-69
2022/11/27 05:13:33;;;;;;;27.10;15.80;;;2.80;99.90;;;;;;2056033;28;20792;-69
2022/11/27 05:14:34;;;;;;;28.52;16.38;;;2.80;99.90;;;;;;2055459;28;20453;-69
2022/11/27 05:15:35;;;;;;;27.13;16.50;;;2.80;99.90;;;;;;2055496;28;20149;-70
2022/11/27 05:16:35;;;;;;;28.77;17.42;;;2.80;99.90;;;;;;2055579;28;20392;-69
2022/11/27 05:17:36;;;;;;;27.95;17.13;;;2.80;99.90;;;;;;2055946;28;20389;-70
2022/11/27 05:18:37;;;;;;;28.45;16.33;;;2.80;99.90;;;;;;2056123;28;20023;-69
2022/11/27 05:19:37;;;;;;;30.65;16.58;;;2.70;99.90;;;;;;2056370;28;20023;-69
2022/11/27 05:20:38;;;;;;;28.17;16.80;;;2.70;99.90;;;;;;2056021;28;20752;-69
2022/11/27 05:21:39;;;;;;;26.17;16.35;;;2.80;99.90;;;;;;2052047;28;20090;-70
2022/11/27 05:22:40;;;;;;;30.92;16.75;;;2.70;99.90;;;;;;2055216;28;20338;-71
2022/11/27 05:23:40;;;;;;;27.65;16.40;;;2.70;99.90;;;;;;2055979;28;20051;-69
2022/11/27 05:24:41;;;;;;;28.73;16.75;;;2.70;99.90;;;;;;2055893;28;20453;-68
2022/11/27 05:25:41;;;;;;;27.95;15.85;;;2.70;99.90;;;;;;2063339;28;20018;-69
2022/11/27 05:26:42;;;;;;;28.13;16.35;;;2.70;99.90;;;;;;2063482;28;20038;-70
2022/11/27 05:27:43;;;;;;;27.00;16.05;;;2.70;99.90;;;;;;2055821;28;20035;-71
2022/11/27 05:28:44;;;;;;;28.25;16.70;;;2.70;99.90;;;;;;2056004;28;20026;-70
2022/11/27 05:29:45;;;;;;;28.42;16.58;;;2.70;99.90;;;;;;2055953;28;20489;-69
2022/11/27 05:30:46;;;;;;;26.02;16.05;;;2.70;99.90;;;;;;2056046;28;20085;-70
2022/11/27 05:31:46;;;;;;;25.80;15.57;;;2.70;99.90;;;;;;2055648;28;20464;-70
2022/11/27 05:32:47;;;;;;;27.60;15.80;;;2.70;99.90;;;;;;2048764;28;20114;-70